^^
Saratoga-Weather Station Historical Data
Daily Summary for August 10, 2021 Units:  Metric    English   Both
Daily Weekly Monthly Yearly Custom
  High: Low: Average:
Temperature: 21.3 °C 16 °C 18.5 °C
Dew Point: 18.9 °C 15.4 °C 17.1 °C
Humidity: 97% 81% 92%
Wind Speed: 7.9km/h 0km/h 0.8km/h
Wind Gust: 12.9km/h - -
Wind- - SW
Pressure: 1015.6 hPa 1012.2 hPa -
Precipitation: 4.8 mm    
Historical Graphs
 
 
Tabular Data for August 10, 2021
Time Temperature Dew Point Pressure Wind Wind Speed Wind Gust Humidity Rainfall Rate (Hourly) solar
00:04 17.8 °C 16.7 °C 1012.5 hPa Calm     93% 0.0 mm 0 W/m2
00:09 17.8 °C 16.7 °C 1012.5 hPa Calm     93% 0.0 mm 0 W/m2
00:14 17.8 °C 16.7 °C 1012.5 hPa Calm     93% 0.0 mm 0 W/m2
00:19 17.8 °C 16.8 °C 1012.5 hPa Calm     94% 0.0 mm 0 W/m2
00:24 17.7 °C 16.7 °C 1012.5 hPa Calm     94% 0.0 mm 0 W/m2
00:29 17.7 °C 16.7 °C 1012.5 hPa Calm     94% 0.0 mm 0 W/m2
00:34 17.7 °C 16.7 °C 1012.5 hPa Calm   3.2 km/h 94% 0.0 mm 0 W/m2
00:39 17.8 °C 16.8 °C 1012.5 hPa Calm     94% 0.0 mm 0 W/m2
00:44 17.8 °C 16.8 °C 1012.5 hPa NNW 1.4 km/h 3.2 km/h 94% 0.0 mm 0 W/m2
00:49 17.8 °C 16.8 °C 1012.5 hPa Calm   1.6 km/h 94% 0.0 mm 0 W/m2
00:54 17.9 °C 16.9 °C 1012.5 hPa Calm   1.6 km/h 94% 0.0 mm 0 W/m2
00:59 17.9 °C 16.9 °C 1012.2 hPa Calm     94% 0.0 mm 0 W/m2
01:04 17.9 °C 16.9 °C 1012.2 hPa WSW 1.4 km/h 4.8 km/h 94% 0.0 mm 0 W/m2
01:09 18.1 °C 17.1 °C 1012.5 hPa Calm   1.6 km/h 94% 0.0 mm 0 W/m2
01:15 18.2 °C 17.2 °C 1012.5 hPa NNE 3.2 km/h 4.8 km/h 94% 0.0 mm 0 W/m2
01:20 18.3 °C 17.1 °C 1012.5 hPa SW 1.4 km/h 3.2 km/h 93% 0.0 mm 0 W/m2
01:25 18.3 °C 17 °C 1012.5 hPa Calm   4.8 km/h 92% 0.0 mm 0 W/m2
01:30 18.4 °C 17.1 °C 1012.5 hPa Calm   1.6 km/h 92% 0.0 mm 0 W/m2
01:35 18.4 °C 17.1 °C 1012.5 hPa SE 3.2 km/h 3.2 km/h 92% 0.0 mm 0 W/m2
01:40 18.4 °C 17.1 °C 1012.5 hPa ESE 1.4 km/h 1.6 km/h 92% 0.0 mm 0 W/m2
01:45 18.3 °C 17 °C 1012.5 hPa Calm   3.2 km/h 92% 0.0 mm 0 W/m2
01:50 18.3 °C 17 °C 1012.5 hPa Calm   3.2 km/h 92% 0.0 mm 0 W/m2
01:55 18.3 °C 17 °C 1012.5 hPa Calm     92% 0.0 mm 0 W/m2
02:00 18.3 °C 17 °C 1012.5 hPa Calm   3.2 km/h 92% 0.0 mm 0 W/m2
02:05 18.2 °C 16.9 °C 1012.5 hPa Calm     92% 0.0 mm 0 W/m2
02:10 18.1 °C 16.8 °C 1012.5 hPa Calm     92% 0.0 mm 0 W/m2
02:15 18 °C 16.9 °C 1012.5 hPa East 3.2 km/h 4.8 km/h 93% 0.0 mm 0 W/m2
02:20 17.9 °C 16.8 °C 1012.5 hPa Calm   1.6 km/h 93% 0.0 mm 0 W/m2
02:25 17.8 °C 16.7 °C 1012.5 hPa Calm   4.8 km/h 93% 0.0 mm 0 W/m2
02:30 17.8 °C 16.7 °C 1012.5 hPa Calm   1.6 km/h 93% 0.0 mm 0 W/m2
02:35 17.7 °C 16.6 °C 1012.5 hPa Calm     93% 0.0 mm 0 W/m2
02:40 17.6 °C 16.5 °C 1012.5 hPa Calm     93% 0.0 mm 0 W/m2
02:45 17.5 °C 16.4 °C 1012.5 hPa Calm     93% 0.0 mm 0 W/m2
02:50 17.4 °C 16.3 °C 1012.5 hPa Calm     93% 0.0 mm 0 W/m2
02:55 17.4 °C 16.4 °C 1012.5 hPa Calm     94% 0.0 mm 0 W/m2
03:00 17.3 °C 16.2 °C 1012.9 hPa Calm     93% 0.0 mm 0 W/m2
03:05 17.3 °C 16.3 °C 1012.9 hPa Calm     94% 0.0 mm 0 W/m2
03:10 17.3 °C 16.3 °C 1012.5 hPa Calm     94% 0.0 mm 0 W/m2
03:15 17.2 °C 16.2 °C 1012.5 hPa Calm     94% 0.0 mm 0 W/m2
03:20 17.2 °C 16.2 °C 1012.5 hPa Calm     94% 0.0 mm 0 W/m2
03:25 17.2 °C 16.2 °C 1012.5 hPa Calm     94% 0.0 mm 0 W/m2
03:30 17.2 °C 16.2 °C 1012.5 hPa Calm     94% 0.0 mm 0 W/m2
03:35 17.2 °C 16.4 °C 1012.9 hPa Calm     95% 0.0 mm 0 W/m2
03:40 17.2 °C 16.4 °C 1012.9 hPa Calm     95% 0.0 mm 0 W/m2
03:45 17.2 °C 16.4 °C 1012.5 hPa Calm     95% 0.0 mm 0 W/m2
03:50 17.2 °C 16.4 °C 1012.5 hPa Calm     95% 0.0 mm 0 W/m2
03:55 17.2 °C 16.4 °C 1012.5 hPa Calm     95% 0.0 mm 0 W/m2
04:00 17.2 °C 16.4 °C 1012.5 hPa Calm     95% 0.0 mm 0 W/m2
04:05 17.1 °C 16.3 °C 1012.5 hPa Calm     95% 0.0 mm 0 W/m2
04:10 17.1 °C 16.3 °C 1012.5 hPa Calm     95% 0.0 mm 0 W/m2
04:15 17 °C 16.2 °C 1012.5 hPa Calm     95% 0.0 mm 0 W/m2
04:20 16.9 °C 16.1 °C 1012.5 hPa Calm     95% 0.0 mm 0 W/m2
04:25 16.9 °C 16.1 °C 1012.5 hPa Calm     95% 0.0 mm 0 W/m2
04:30 16.8 °C 16 °C 1012.5 hPa Calm     95% 0.0 mm 0 W/m2
04:35 16.8 °C 16 °C 1012.5 hPa Calm     95% 0.0 mm 0 W/m2
04:40 16.7 °C 15.9 °C 1012.5 hPa Calm     95% 0.0 mm 0 W/m2
04:45 16.7 °C 15.9 °C 1012.5 hPa Calm     95% 0.0 mm 0 W/m2
04:50 16.6 °C 15.8 °C 1012.5 hPa Calm     95% 0.0 mm 0 W/m2
04:55 16.5 °C 15.7 °C 1012.5 hPa Calm     95% 0.0 mm 0 W/m2
05:01 16.4 °C 15.6 °C 1012.5 hPa Calm     95% 0.0 mm 0 W/m2
05:06 16.4 °C 15.6 °C 1012.5 hPa Calm     95% 0.0 mm 0 W/m2
05:11 16.4 °C 15.6 °C 1012.2 hPa Calm     95% 0.0 mm 0 W/m2
05:16 16.4 °C 15.6 °C 1012.5 hPa Calm     95% 0.0 mm 0 W/m2
05:21 16.4 °C 15.6 °C 1012.5 hPa Calm     95% 0.0 mm 0 W/m2
05:26 16.4 °C 15.6 °C 1012.2 hPa Calm     95% 0.0 mm 0 W/m2
05:31 16.3 °C 15.5 °C 1012.2 hPa Calm     95% 0.0 mm 0 W/m2
05:36 16.3 °C 15.5 °C 1012.2 hPa Calm     95% 0.0 mm 0 W/m2
05:41 16.3 °C 15.7 °C 1012.2 hPa Calm     96% 0.0 mm 0 W/m2
05:46 16.3 °C 15.7 °C 1012.2 hPa Calm     96% 0.0 mm 0 W/m2
05:51 16.3 °C 15.7 °C 1012.2 hPa Calm     96% 0.0 mm 0 W/m2
05:56 16.3 °C 15.7 °C 1012.2 hPa Calm     96% 0.0 mm 0 W/m2
06:01 16.2 °C 15.6 °C 1012.2 hPa Calm     96% 0.0 mm 0 W/m2
06:06 16.2 °C 15.6 °C 1012.2 hPa Calm     96% 0.0 mm 0 W/m2
06:11 16.2 °C 15.6 °C 1012.2 hPa Calm     96% 0.0 mm 0 W/m2
06:16 16.1 °C 15.5 °C 1012.2 hPa Calm     96% 0.0 mm 0 W/m2
06:21 16.1 °C 15.5 °C 1012.2 hPa Calm     96% 0.0 mm 0 W/m2
06:26 16.1 °C 15.5 °C 1012.2 hPa Calm     96% 0.0 mm 0 W/m2
06:31 16 °C 15.4 °C 1012.2 hPa Calm     96% 0.0 mm 0 W/m2
06:36 16 °C 15.4 °C 1012.2 hPa Calm     96% 0.0 mm 0 W/m2
06:41 16.1 °C 15.5 °C 1012.2 hPa Calm     96% 0.0 mm 0 W/m2
06:46 16.1 °C 15.5 °C 1012.2 hPa Calm     96% 0.0 mm 0 W/m2
06:51 16 °C 15.4 °C 1012.2 hPa Calm     96% 0.0 mm 0 W/m2
06:56 16 °C 15.4 °C 1012.2 hPa Calm     96% 0.0 mm 0 W/m2
07:01 16.1 °C 15.5 °C 1012.2 hPa Calm     96% 0.0 mm 0 W/m2
07:06 16.2 °C 15.6 °C 1012.5 hPa Calm     96% 0.0 mm 0 W/m2
07:11 16.2 °C 15.6 °C 1012.5 hPa Calm     96% 0.0 mm 0 W/m2
07:16 16.2 °C 15.6 °C 1012.5 hPa Calm     96% 0.0 mm 0 W/m2
07:21 16.2 °C 15.6 °C 1012.5 hPa Calm     96% 0.0 mm 0 W/m2
07:26 16.3 °C 15.7 °C 1012.5 hPa Calm     96% 0.0 mm 7 W/m2
07:31 16.3 °C 15.7 °C 1012.5 hPa Calm     96% 0.0 mm 11 W/m2
07:36 16.3 °C 15.7 °C 1012.5 hPa Calm     96% 0.0 mm 16 W/m2
07:41 16.4 °C 15.8 °C 1012.9 hPa Calm     96% 0.0 mm 18 W/m2
07:46 16.4 °C 15.8 °C 1012.9 hPa Calm     96% 0.0 mm 19 W/m2
07:51 16.4 °C 15.8 °C 1012.9 hPa Calm     96% 0.0 mm 21 W/m2
07:56 16.5 °C 15.9 °C 1012.9 hPa Calm     96% 0.0 mm 19 W/m2
08:01 16.6 °C 16 °C 1012.9 hPa Calm     96% 0.0 mm 23 W/m2
08:06 16.6 °C 16.1 °C 1012.9 hPa Calm     97% 0.0 mm 25 W/m2
08:11 16.6 °C 16.1 °C 1012.9 hPa Calm     97% 0.0 mm 19 W/m2
08:16 16.6 °C 16.1 °C 1012.9 hPa Calm     97% 0.0 mm 23 W/m2
08:21 16.7 °C 16.2 °C 1012.9 hPa Calm     97% 0.0 mm 23 W/m2
08:26 16.7 °C 16.2 °C 1012.9 hPa Calm     97% 0.0 mm 28 W/m2
08:31 16.8 °C 16.3 °C 1012.9 hPa Calm     97% 0.0 mm 33 W/m2
08:36 16.8 °C 16.3 °C 1012.9 hPa Calm     97% 0.0 mm 46 W/m2
08:41 16.8 °C 16.3 °C 1012.9 hPa Calm     97% 0.0 mm 67 W/m2
08:47 16.9 °C 16.4 °C 1012.9 hPa Calm     97% 0.0 mm 81 W/m2
08:52 16.9 °C 16.4 °C 1012.9 hPa Calm     97% 0.0 mm 67 W/m2
08:57 16.9 °C 16.4 °C 1013.2 hPa Calm     97% 0.0 mm 56 W/m2
09:02 17 °C 16.5 °C 1013.2 hPa Calm     97% 0.0 mm 49 W/m2
09:07 17.1 °C 16.6 °C 1013.2 hPa Calm     97% 0.0 mm 39 W/m2
09:12 17.1 °C 16.6 °C 1013.2 hPa Calm     97% 0.0 mm 56 W/m2
09:17 17.2 °C 16.7 °C 1013.2 hPa East 3.2 km/h 3.2 km/h 97% 0.0 mm 72 W/m2
09:22 17.3 °C 16.7 °C 1013.2 hPa Calm   1.6 km/h 96% 0.0 mm 83 W/m2
09:27 17.3 °C 16.7 °C 1013.2 hPa Calm     96% 0.0 mm 107 W/m2
09:32 17.4 °C 16.8 °C 1013.2 hPa Calm   1.6 km/h 96% 0.0 mm 132 W/m2
09:37 17.6 °C 17 °C 1013.2 hPa NNW 1.4 km/h 1.6 km/h 96% 0.0 mm 132 W/m2
09:42 17.9 °C 17.1 °C 1013.5 hPa Calm   3.2 km/h 95% 0.0 mm 95 W/m2
09:47 18.1 °C 17.1 °C 1013.5 hPa SW 1.4 km/h 3.2 km/h 94% 0.0 mm 98 W/m2
09:52 18.3 °C 17.1 °C 1013.5 hPa Calm     93% 0.0 mm 77 W/m2
09:57 18.4 °C 17.2 °C 1013.5 hPa East 4.7 km/h 4.8 km/h 93% 0.0 mm 104 W/m2
10:02 18.6 °C 17.1 °C 1013.5 hPa East 3.2 km/h 3.2 km/h 91% 0.0 mm 90 W/m2
10:07 18.7 °C 17.2 °C 1013.5 hPa NNE 3.2 km/h 4.8 km/h 91% 0.0 mm 81 W/m2
10:12 18.7 °C 17 °C 1013.5 hPa Calm     90% 0.0 mm 97 W/m2
10:17 18.8 °C 16.9 °C 1013.5 hPa Calm   3.2 km/h 89% 0.0 mm 123 W/m2
10:22 18.9 °C 17.2 °C 1013.5 hPa ESE 3.2 km/h 3.2 km/h 90% 0.0 mm 125 W/m2
10:27 18.9 °C 17 °C 1013.5 hPa Calm   4.8 km/h 89% 0.0 mm 171 W/m2
10:32 19.1 °C 17.2 °C 1013.5 hPa NE 1.4 km/h 3.2 km/h 89% 0.0 mm 225 W/m2
10:37 19.2 °C 17.2 °C 1013.5 hPa Calm   3.2 km/h 88% 0.0 mm 163 W/m2
10:42 19.3 °C 17.3 °C 1013.5 hPa Calm     88% 0.0 mm 146 W/m2
10:47 19.4 °C 17.2 °C 1013.9 hPa Calm   4.8 km/h 87% 0.0 mm 183 W/m2
10:52 19.5 °C 17.3 °C 1013.9 hPa Calm   1.6 km/h 87% 0.0 mm 183 W/m2
10:57 19.6 °C 17.4 °C 1013.9 hPa ENE 3.2 km/h 3.2 km/h 87% 0.0 mm 190 W/m2
11:02 19.7 °C 17.5 °C 1013.9 hPa North 3.2 km/h 3.2 km/h 87% 0.0 mm 220 W/m2
11:07 19.9 °C 17.5 °C 1013.9 hPa ENE 1.4 km/h 3.2 km/h 86% 0.0 mm 214 W/m2
11:12 20 °C 17.6 °C 1013.9 hPa NNW 3.2 km/h 8 km/h 86% 0.0 mm 186 W/m2
11:17 19.9 °C 17.5 °C 1013.9 hPa Calm   6.4 km/h 86% 0.0 mm 137 W/m2
11:22 19.9 °C 17.5 °C 1013.9 hPa Calm   1.6 km/h 86% 0.0 mm 125 W/m2
11:27 19.9 °C 17.5 °C 1013.9 hPa Calm     86% 0.0 mm 172 W/m2
11:32 20.1 °C 17.7 °C 1013.9 hPa WNW 1.4 km/h 3.2 km/h 86% 0.0 mm 160 W/m2
11:37 20.1 °C 17.5 °C 1013.9 hPa Calm   3.2 km/h 85% 0.0 mm 105 W/m2
11:42 20.1 °C 17.5 °C 1013.9 hPa Calm   6.4 km/h 85% 0.0 mm 86 W/m2
11:47 20.1 °C 17.7 °C 1013.9 hPa Calm   1.6 km/h 86% 0.0 mm 102 W/m2
11:52 20.2 °C 17.8 °C 1014.2 hPa NE 1.4 km/h 6.4 km/h 86% 0.0 mm 100 W/m2
11:57 20.2 °C 17.6 °C 1014.2 hPa NW 1.4 km/h 9.7 km/h 85% 0.0 mm 123 W/m2
12:02 20.2 °C 17.8 °C 1013.9 hPa Calm   1.6 km/h 86% 0.0 mm 120 W/m2
12:07 20.2 °C 17.6 °C 1013.9 hPa Calm   3.2 km/h 85% 0.0 mm 142 W/m2
12:12 20.2 °C 17.8 °C 1013.9 hPa WNW 1.4 km/h 3.2 km/h 86% 0.0 mm 200 W/m2
12:17 20.2 °C 17.8 °C 1013.9 hPa Calm   1.6 km/h 86% 0.0 mm 244 W/m2
12:22 20.3 °C 17.9 °C 1014.2 hPa West 3.2 km/h 3.2 km/h 86% 0.0 mm 287 W/m2
12:27 20.3 °C 17.9 °C 1014.2 hPa NNE 3.2 km/h 4.8 km/h 86% 0.0 mm 265 W/m2
12:32 20.4 °C 17.8 °C 1013.9 hPa NNE 1.4 km/h 3.2 km/h 85% 0.0 mm 244 W/m2
12:37 20.5 °C 17.9 °C 1013.9 hPa WNW 1.4 km/h 6.4 km/h 85% 0.0 mm 211 W/m2
12:42 20.6 °C 18 °C 1013.9 hPa Calm   4.8 km/h 85% 0.0 mm 193 W/m2
12:47 20.6 °C 17.8 °C 1013.9 hPa West 4.7 km/h 9.7 km/h 84% 0.0 mm 190 W/m2
12:52 20.6 °C 18 °C 1013.9 hPa North 1.4 km/h 3.2 km/h 85% 0.0 mm 237 W/m2
12:57 20.5 °C 17.7 °C 1013.9 hPa WNW 1.4 km/h 9.7 km/h 84% 0.0 mm 241 W/m2
13:02 20.6 °C 18 °C 1013.9 hPa Calm   4.8 km/h 85% 0.0 mm 209 W/m2
13:07 20.6 °C 18 °C 1013.9 hPa ENE 1.4 km/h 6.4 km/h 85% 0.0 mm 218 W/m2
13:12 20.6 °C 18 °C 1013.9 hPa Calm   3.2 km/h 85% 0.0 mm 350 W/m2
13:17 20.8 °C 18.2 °C 1013.9 hPa SW 1.4 km/h 4.8 km/h 85% 0.0 mm 381 W/m2
13:22 21 °C 17.8 °C 1013.9 hPa West 1.4 km/h 4.8 km/h 82% 0.0 mm 311 W/m2
13:27 21.1 °C 17.7 °C 1013.9 hPa NNW 4.7 km/h 6.4 km/h 81% 0.0 mm 255 W/m2
13:32 21 °C 17.8 °C 1013.9 hPa WNW 4.7 km/h 4.8 km/h 82% 0.0 mm 221 W/m2
13:37 20.9 °C 17.7 °C 1013.9 hPa WNW 4.7 km/h 4.8 km/h 82% 0.0 mm 262 W/m2
13:42 20.9 °C 17.7 °C 1013.9 hPa NW 3.2 km/h 12.9 km/h 82% 0.0 mm 269 W/m2
13:47 20.9 °C 17.7 °C 1014.2 hPa West 3.2 km/h 8 km/h 82% 0.0 mm 211 W/m2
13:52 20.9 °C 17.7 °C 1013.9 hPa WNW 7.9 km/h 12.9 km/h 82% 0.0 mm 359 W/m2
13:57 21 °C 17.8 °C 1013.9 hPa NW 4.7 km/h 4.8 km/h 82% 0.0 mm 392 W/m2
14:02 21.3 °C 18.1 °C 1013.9 hPa SW 3.2 km/h 11.3 km/h 82% 0.0 mm 255 W/m2
14:07 21.3 °C 17.9 °C 1013.9 hPa ENE 1.4 km/h 6.4 km/h 81% 0.0 mm 232 W/m2
14:12 21.2 °C 17.8 °C 1013.5 hPa West 1.4 km/h 9.7 km/h 81% 0.0 mm 195 W/m2
14:17 21.2 °C 17.8 °C 1013.9 hPa ESE 3.2 km/h 6.4 km/h 81% 0.0 mm 114 W/m2
14:22 21.2 °C 18 °C 1013.9 hPa WSW 3.2 km/h 3.2 km/h 82% 0.0 mm 74 W/m2
14:27 21 °C 17.8 °C 1013.9 hPa WNW 1.4 km/h 6.4 km/h 82% 0.0 mm 49 W/m2
14:32 20.7 °C 17.7 °C 1013.9 hPa West 1.4 km/h 3.2 km/h 83% 0.0 mm 56 W/m2
14:37 20.6 °C 18 °C 1013.9 hPa West 1.4 km/h 3.2 km/h 85% 0.2 mm 65 W/m2
14:42 20.3 °C 17.9 °C 1013.9 hPa NW 6.4 km/h 11.3 km/h 86% 0.8 mm 62 W/m2
14:47 19.7 °C 17.5 °C 1013.9 hPa WNW 4.7 km/h 12.9 km/h 87% 3.6 mm 118 W/m2
14:52 19.2 °C 17.3 °C 1013.9 hPa WNW 4.7 km/h 6.4 km/h 89% 4.3 mm 206 W/m2
14:57 19 °C 17.5 °C 1013.5 hPa WNW 3.2 km/h 9.7 km/h 91% 4.6 mm 229 W/m2
15:02 19 °C 17.7 °C 1013.5 hPa NW 3.2 km/h 4.8 km/h 92% 4.6 mm 202 W/m2
15:07 19.1 °C 17.8 °C 1013.5 hPa West 1.4 km/h 6.4 km/h 92% 4.6 mm 204 W/m2
15:12 19.1 °C 17.9 °C 1013.5 hPa ENE 1.4 km/h 3.2 km/h 93% 4.6 mm 206 W/m2
15:17 19.2 °C 18 °C 1013.5 hPa NW 1.4 km/h 3.2 km/h 93% 4.8 mm 214 W/m2
15:22 19.3 °C 18.1 °C 1013.5 hPa WNW 3.2 km/h 3.2 km/h 93% 4.8 mm 246 W/m2
15:27 19.4 °C 18.2 °C 1013.5 hPa WNW 6.4 km/h 6.4 km/h 93% 4.8 mm 325 W/m2
15:32 19.4 °C 18.2 °C 1013.5 hPa WNW 3.2 km/h 8 km/h 93% 4.8 mm 269 W/m2
15:37 19.5 °C 18.3 °C 1013.5 hPa Calm   4.8 km/h 93% 4.6 mm 211 W/m2
15:42 19.6 °C 18.4 °C 1013.5 hPa WNW 3.2 km/h 8 km/h 93% 4.1 mm 171 W/m2
15:47 19.6 °C 18.4 °C 1013.5 hPa West 4.7 km/h 4.8 km/h 93% 1.0 mm 169 W/m2
15:52 19.6 °C 18.3 °C 1013.5 hPa Calm   6.4 km/h 92% 0.5 mm 172 W/m2
15:57 19.6 °C 18.3 °C 1013.5 hPa Calm   6.4 km/h 92% 0.2 mm 165 W/m2
16:02 19.7 °C 18.4 °C 1013.5 hPa Calm     92% 0.2 mm 165 W/m2
16:07 19.7 °C 18.4 °C 1013.5 hPa WNW 3.2 km/h 6.4 km/h 92% 0.2 mm 211 W/m2
16:12 19.7 °C 18.4 °C 1013.5 hPa West 1.4 km/h 3.2 km/h 92% 0.2 mm 271 W/m2
16:17 19.7 °C 18.4 °C 1013.5 hPa Calm   3.2 km/h 92% 0.0 mm 267 W/m2
16:22 19.8 °C 18.5 °C 1013.5 hPa Calm   4.8 km/h 92% 0.0 mm 220 W/m2
16:27 19.8 °C 18.3 °C 1013.5 hPa NW 3.2 km/h 4.8 km/h 91% 0.0 mm 171 W/m2
16:32 19.8 °C 18.3 °C 1013.5 hPa NNW 1.4 km/h 4.8 km/h 91% 0.0 mm 176 W/m2
16:37 19.8 °C 18.3 °C 1013.5 hPa NW 1.4 km/h 9.7 km/h 91% 0.0 mm 206 W/m2
16:42 19.8 °C 18.3 °C 1013.5 hPa Calm   3.2 km/h 91% 0.0 mm 381 W/m2
16:47 20.1 °C 18.6 °C 1013.5 hPa Calm   4.8 km/h 91% 0.0 mm 522 W/m2
16:52 20.2 °C 18.5 °C 1013.5 hPa Calm   3.2 km/h 90% 0.0 mm 169 W/m2
16:57 20.2 °C 18.5 °C 1013.9 hPa WNW 3.2 km/h 6.4 km/h 90% 0.0 mm 158 W/m2
17:02 20.1 °C 18.2 °C 1013.5 hPa Calm   3.2 km/h 89% 0.0 mm 181 W/m2
17:07 20.2 °C 18.5 °C 1013.5 hPa NW 1.4 km/h 1.6 km/h 90% 0.0 mm 225 W/m2
17:12 20.2 °C 18.3 °C 1013.5 hPa West 1.4 km/h 3.2 km/h 89% 0.0 mm 272 W/m2
17:17 20.3 °C 18.4 °C 1013.9 hPa WNW 4.7 km/h 4.8 km/h 89% 0.0 mm 504 W/m2
17:22 20.4 °C 18.3 °C 1013.9 hPa West 4.7 km/h 4.8 km/h 88% 0.0 mm 367 W/m2
17:27 20.4 °C 18.2 °C 1013.5 hPa NNW 1.4 km/h 4.8 km/h 87% 0.0 mm 394 W/m2
17:32 20.6 °C 18.4 °C 1013.5 hPa SSE 1.4 km/h 6.4 km/h 87% 0.0 mm 352 W/m2
17:38 20.7 °C 18.3 °C 1013.5 hPa SSW 1.4 km/h 1.6 km/h 86% 0.0 mm 343 W/m2
17:43 20.9 °C 18.7 °C 1013.5 hPa Calm   1.6 km/h 87% 0.0 mm 262 W/m2
17:48 21.2 °C 18.9 °C 1013.5 hPa North 1.4 km/h 1.6 km/h 87% 0.0 mm 294 W/m2
17:53 21.2 °C 18.8 °C 1013.5 hPa Calm     86% 0.0 mm 294 W/m2
17:58 21.3 °C 18.7 °C 1013.5 hPa Calm   1.6 km/h 85% 0.0 mm 255 W/m2
18:03 21.3 °C 18.7 °C 1013.5 hPa Calm   1.6 km/h 85% 0.0 mm 204 W/m2
18:08 21.2 °C 18.4 °C 1013.5 hPa Calm   3.2 km/h 84% 0.0 mm 77 W/m2
18:13 21.1 °C 18.5 °C 1013.5 hPa SSE 1.4 km/h 4.8 km/h 85% 0.0 mm 69 W/m2
18:18 20.9 °C 18.5 °C 1013.5 hPa Calm   1.6 km/h 86% 0.0 mm 121 W/m2
18:23 20.7 °C 18.3 °C 1013.5 hPa Calm   6.4 km/h 86% 0.0 mm 76 W/m2
18:28 20.6 °C 18.4 °C 1013.5 hPa Calm   1.6 km/h 87% 0.0 mm 67 W/m2
18:33 20.5 °C 18.3 °C 1013.5 hPa Calm   3.2 km/h 87% 0.0 mm 65 W/m2
18:38 20.3 °C 18.2 °C 1013.5 hPa Calm   1.6 km/h 88% 0.0 mm 58 W/m2
18:43 20.3 °C 18.4 °C 1013.5 hPa Calm     89% 0.0 mm 49 W/m2
18:48 20.2 °C 18.3 °C 1013.5 hPa Calm     89% 0.0 mm 42 W/m2
18:53 20 °C 18.3 °C 1013.5 hPa Calm   1.6 km/h 90% 0.0 mm 33 W/m2
18:58 19.9 °C 18.2 °C 1013.5 hPa Calm     90% 0.0 mm 26 W/m2
19:03 19.8 °C 18.3 °C 1013.5 hPa Calm   1.6 km/h 91% 0.0 mm 23 W/m2
19:08 19.7 °C 18.2 °C 1013.5 hPa East 1.4 km/h 1.6 km/h 91% 0.0 mm 25 W/m2
19:13 19.6 °C 18.3 °C 1013.5 hPa Calm     92% 0.0 mm 25 W/m2
19:18 19.5 °C 18.2 °C 1013.5 hPa Calm     92% 0.0 mm 21 W/m2
19:23 19.3 °C 18 °C 1013.9 hPa Calm   1.6 km/h 92% 0.0 mm 21 W/m2
19:28 19.2 °C 17.9 °C 1013.9 hPa Calm   1.6 km/h 92% 0.0 mm 23 W/m2
19:33 19.1 °C 17.9 °C 1013.9 hPa Calm     93% 0.0 mm 21 W/m2
19:38 19 °C 17.8 °C 1013.9 hPa Calm   3.2 km/h 93% 0.0 mm 19 W/m2
19:43 18.9 °C 17.7 °C 1013.9 hPa East 1.4 km/h 3.2 km/h 93% 0.0 mm 12 W/m2
19:48 18.8 °C 17.6 °C 1013.9 hPa Calm     93% 0.0 mm 9 W/m2
19:53 18.8 °C 17.6 °C 1013.9 hPa Calm     93% 0.0 mm 5 W/m2
19:58 18.7 °C 17.5 °C 1014.2 hPa Calm   1.6 km/h 93% 0.0 mm 0 W/m2
20:03 18.6 °C 17.6 °C 1014.2 hPa Calm   3.2 km/h 94% 0.0 mm 0 W/m2
20:08 18.6 °C 17.6 °C 1014.2 hPa Calm   3.2 km/h 94% 0.0 mm 0 W/m2
20:13 18.6 °C 17.6 °C 1014.2 hPa Calm   1.6 km/h 94% 0.0 mm 0 W/m2
20:18 18.4 °C 17.4 °C 1014.2 hPa Calm   1.6 km/h 94% 0.0 mm 0 W/m2
20:23 18.4 °C 17.4 °C 1014.2 hPa SSE 1.4 km/h 1.6 km/h 94% 0.0 mm 0 W/m2
20:28 18.3 °C 17.3 °C 1014.6 hPa Calm   3.2 km/h 94% 0.0 mm 0 W/m2
20:33 18.3 °C 17.3 °C 1014.6 hPa Calm     94% 0.0 mm 0 W/m2
20:38 18.2 °C 17.2 °C 1014.6 hPa Calm   1.6 km/h 94% 0.0 mm 0 W/m2
20:43 18.2 °C 17.2 °C 1014.6 hPa Calm   6.4 km/h 94% 0.0 mm 0 W/m2
20:48 18.2 °C 17.2 °C 1014.6 hPa Calm     94% 0.0 mm 0 W/m2
20:53 18.1 °C 17.1 °C 1014.6 hPa Calm   4.8 km/h 94% 0.0 mm 0 W/m2
20:58 18.1 °C 17.1 °C 1014.9 hPa NNE 1.4 km/h 1.6 km/h 94% 0.0 mm 0 W/m2
21:03 18.2 °C 17.2 °C 1014.9 hPa Calm   1.6 km/h 94% 0.0 mm 0 W/m2
21:08 18.2 °C 17.2 °C 1014.9 hPa Calm   1.6 km/h 94% 0.0 mm 0 W/m2
21:13 18.3 °C 17.3 °C 1014.9 hPa Calm   3.2 km/h 94% 0.0 mm 0 W/m2
21:18 18.3 °C 17.1 °C 1014.9 hPa NW 1.4 km/h 4.8 km/h 93% 0.0 mm 0 W/m2
21:23 18.3 °C 17.1 °C 1015.2 hPa North 3.2 km/h 3.2 km/h 93% 0.0 mm 0 W/m2
21:28 18.4 °C 17.2 °C 1015.2 hPa Calm   3.2 km/h 93% 0.0 mm 0 W/m2
21:33 18.4 °C 17.2 °C 1015.2 hPa Calm     93% 0.0 mm 0 W/m2
21:38 18.3 °C 17.1 °C 1015.2 hPa Calm     93% 0.0 mm 0 W/m2
21:43 18.3 °C 17.1 °C 1015.2 hPa Calm   4.8 km/h 93% 0.0 mm 0 W/m2
21:48 18.2 °C 17 °C 1015.2 hPa Calm   4.8 km/h 93% 0.0 mm 0 W/m2
21:53 18.1 °C 16.9 °C 1015.2 hPa Calm     93% 0.0 mm 0 W/m2
21:58 18.1 °C 16.9 °C 1015.2 hPa West 1.4 km/h 3.2 km/h 93% 0.0 mm 0 W/m2
22:03 18 °C 16.9 °C 1015.2 hPa Calm   1.6 km/h 93% 0.0 mm 0 W/m2
22:08 18 °C 16.9 °C 1015.2 hPa Calm     93% 0.0 mm 0 W/m2
22:13 17.9 °C 16.8 °C 1015.2 hPa Calm     93% 0.0 mm 0 W/m2
22:18 17.9 °C 16.9 °C 1015.2 hPa NW 1.4 km/h 1.6 km/h 94% 0.0 mm 0 W/m2
22:23 17.9 °C 16.9 °C 1015.2 hPa NW 4.7 km/h 6.4 km/h 94% 0.0 mm 0 W/m2
22:28 17.9 °C 16.9 °C 1015.2 hPa Calm   1.6 km/h 94% 0.0 mm 0 W/m2
22:33 17.9 °C 16.9 °C 1015.2 hPa East 6.4 km/h 6.4 km/h 94% 0.0 mm 0 W/m2
22:38 17.8 °C 16.8 °C 1015.2 hPa Calm   3.2 km/h 94% 0.0 mm 0 W/m2
22:43 17.8 °C 16.8 °C 1015.2 hPa East 3.2 km/h 3.2 km/h 94% 0.0 mm 0 W/m2
22:48 17.8 °C 16.8 °C 1015.2 hPa NE 1.4 km/h 6.4 km/h 94% 0.0 mm 0 W/m2
22:53 17.8 °C 16.8 °C 1015.2 hPa Calm   3.2 km/h 94% 0.0 mm 0 W/m2
22:58 17.8 °C 16.8 °C 1015.2 hPa Calm   6.4 km/h 94% 0.0 mm 0 W/m2
23:03 17.8 °C 16.8 °C 1015.2 hPa Calm   1.6 km/h 94% 0.0 mm 0 W/m2
23:08 17.8 °C 16.8 °C 1015.2 hPa Calm   3.2 km/h 94% 0.0 mm 0 W/m2
23:13 17.7 °C 16.7 °C 1015.2 hPa Calm   1.6 km/h 94% 0.0 mm 0 W/m2
23:18 17.7 °C 16.7 °C 1015.2 hPa Calm   3.2 km/h 94% 0.0 mm 0 W/m2
23:23 17.6 °C 16.6 °C 1015.2 hPa Calm   1.6 km/h 94% 0.0 mm 0 W/m2
23:28 17.6 °C 16.6 °C 1015.2 hPa Calm     94% 0.0 mm 0 W/m2
23:33 17.5 °C 16.5 °C 1015.2 hPa Calm   3.2 km/h 94% 0.0 mm 0 W/m2
23:38 17.4 °C 16.4 °C 1015.6 hPa Calm     94% 0.0 mm 0 W/m2
23:43 17.3 °C 16.3 °C 1015.6 hPa Calm   3.2 km/h 94% 0.0 mm 0 W/m2
23:48 17.2 °C 16.2 °C 1015.6 hPa Calm   1.6 km/h 94% 0.0 mm 0 W/m2
23:53 17.2 °C 16.2 °C 1015.6 hPa Calm   1.6 km/h 94% 0.0 mm 0 W/m2
23:58 17.2 °C 16.4 °C 1015.6 hPa Calm     95% 0.0 mm 0 W/m2
Juneau County Weather
Compliments of Weather Underground - 2 mb